sensor_id;sensor_type;location;lat;lon;timestamp;pressure;altitude;pressure_sealevel;temperature;humidity
73383;BME280;61600;48.126;11.542;2023-09-12T00:01:41;95384.38;;;24.76;54.47
73383;BME280;61600;48.126;11.542;2023-09-12T00:04:06;95379.38;;;24.55;55.01
73383;BME280;61600;48.126;11.542;2023-09-12T00:06:32;95378.50;;;24.48;55.02
73383;BME280;61600;48.126;11.542;2023-09-12T00:08:58;95366.91;;;24.42;55.08
73383;BME280;61600;48.126;11.542;2023-09-12T00:11:23;95367.31;;;24.41;55.14
73383;BME280;61600;48.126;11.542;2023-09-12T00:13:51;95371.69;;;24.42;55.48
73383;BME280;61600;48.126;11.542;2023-09-12T00:16:17;95366.13;;;24.42;55.06
73383;BME280;61600;48.126;11.542;2023-09-12T00:18:43;95368.88;;;24.08;56.21
73383;BME280;61600;48.126;11.542;2023-09-12T00:21:09;95360.59;;;24.12;55.49
73383;BME280;61600;48.126;11.542;2023-09-12T00:23:34;95364.25;;;24.16;55.74
73383;BME280;61600;48.126;11.542;2023-09-12T00:26:00;95366.38;;;24.29;55.05
73383;BME280;61600;48.126;11.542;2023-09-12T00:28:26;95358.81;;;24.26;54.92
73383;BME280;61600;48.126;11.542;2023-09-12T00:30:52;95356.56;;;24.39;54.66
73383;BME280;61600;48.126;11.542;2023-09-12T00:33:18;95357.84;;;24.45;54.05
73383;BME280;61600;48.126;11.542;2023-09-12T00:35:44;95355.16;;;24.56;53.68
73383;BME280;61600;48.126;11.542;2023-09-12T00:38:10;95349.63;;;24.59;53.79
73383;BME280;61600;48.126;11.542;2023-09-12T00:40:36;95352.16;;;24.34;54.24
73383;BME280;61600;48.126;11.542;2023-09-12T00:43:03;95348.50;;;24.27;54.36
73383;BME280;61600;48.126;11.542;2023-09-12T00:45:29;95352.00;;;24.20;54.78
73383;BME280;61600;48.126;11.542;2023-09-12T00:47:57;95343.69;;;23.94;55.60
73383;BME280;61600;48.126;11.542;2023-09-12T00:50:24;95344.56;;;24.02;55.24
73383;BME280;61600;48.126;11.542;2023-09-12T00:52:53;95335.88;;;24.07;55.45
73383;BME280;61600;48.126;11.542;2023-09-12T00:55:20;95336.75;;;24.11;54.94
73383;BME280;61600;48.126;11.542;2023-09-12T00:57:46;95338.66;;;24.07;54.81
73383;BME280;61600;48.126;11.542;2023-09-12T01:00:13;95332.56;;;23.94;55.54
73383;BME280;61600;48.126;11.542;2023-09-12T01:02:41;95335.06;;;24.03;55.07
73383;BME280;61600;48.126;11.542;2023-09-12T01:05:08;95334.63;;;24.01;55.20
73383;BME280;61600;48.126;11.542;2023-09-12T01:07:36;95331.41;;;23.95;54.99
73383;BME280;61600;48.126;11.542;2023-09-12T01:10:02;95339.28;;;23.93;55.24
73383;BME280;61600;48.126;11.542;2023-09-12T01:12:29;95338.63;;;24.03;55.28
73383;BME280;61600;48.126;11.542;2023-09-12T01:14:55;95331.72;;;23.90;55.57
73383;BME280;61600;48.126;11.542;2023-09-12T01:17:22;95330.97;;;23.93;55.18
73383;BME280;61600;48.126;11.542;2023-09-12T01:19:48;95333.91;;;23.74;55.13
73383;BME280;61600;48.126;11.542;2023-09-12T01:25:19;95332.44;;;23.83;55.65
73383;BME280;61600;48.126;11.542;2023-09-12T01:27:50;95343.63;;;23.91;55.01
73383;BME280;61600;48.126;11.542;2023-09-12T01:30:18;95334.09;;;23.88;54.72
73383;BME280;61600;48.126;11.542;2023-09-12T01:32:45;95334.03;;;23.84;55.03
73383;BME280;61600;48.126;11.542;2023-09-12T01:35:12;95333.81;;;23.67;54.97
73383;BME280;61600;48.126;11.542;2023-09-12T01:37:39;95335.00;;;23.39;56.73
73383;BME280;61600;48.126;11.542;2023-09-12T01:40:06;95331.38;;;23.35;56.55
73383;BME280;61600;48.126;11.542;2023-09-12T01:42:44;95332.41;;;23.27;56.40
73383;BME280;61600;48.126;11.542;2023-09-12T01:45:15;95342.72;;;23.27;56.23
73383;BME280;61600;48.126;11.542;2023-09-12T01:47:42;95340.09;;;23.37;56.42
73383;BME280;61600;48.126;11.542;2023-09-12T01:50:12;95335.13;;;23.47;55.72
73383;BME280;61600;48.126;11.542;2023-09-12T01:52:39;95345.03;;;23.48;55.88
73383;BME280;61600;48.126;11.542;2023-09-12T01:55:07;95346.22;;;23.47;56.13
73383;BME280;61600;48.126;11.542;2023-09-12T01:57:36;95339.16;;;23.53;56.29
73383;BME280;61600;48.126;11.542;2023-09-12T02:00:02;95348.00;;;23.62;55.93
73383;BME280;61600;48.126;11.542;2023-09-12T02:02:28;95354.44;;;23.66;56.06
73383;BME280;61600;48.126;11.542;2023-09-12T02:05:10;95350.03;;;23.38;56.36
73383;BME280;61600;48.126;11.542;2023-09-12T02:07:38;95360.97;;;23.28;56.78
73383;BME280;61600;48.126;11.542;2023-09-12T02:10:05;95363.59;;;23.17;57.24
73383;BME280;61600;48.126;11.542;2023-09-12T02:12:31;95360.97;;;23.28;56.58
73383;BME280;61600;48.126;11.542;2023-09-12T02:14:57;95362.84;;;22.98;57.75
73383;BME280;61600;48.126;11.542;2023-09-12T02:17:23;95364.28;;;22.88;58.20
73383;BME280;61600;48.126;11.542;2023-09-12T02:19:48;95360.88;;;22.98;57.87
73383;BME280;61600;48.126;11.542;2023-09-12T02:22:14;95364.59;;;23.06;57.80
73383;BME280;61600;48.126;11.542;2023-09-12T02:24:40;95361.03;;;22.82;57.86
73383;BME280;61600;48.126;11.542;2023-09-12T02:27:06;95361.91;;;22.45;59.33
73383;BME280;61600;48.126;11.542;2023-09-12T02:29:31;95365.97;;;22.93;58.41
73383;BME280;61600;48.126;11.542;2023-09-12T02:32:00;95370.16;;;22.83;58.70
73383;BME280;61600;48.126;11.542;2023-09-12T02:34:45;95370.47;;;23.01;57.85
73383;BME280;61600;48.126;11.542;2023-09-12T02:37:11;95368.63;;;23.12;57.01
73383;BME280;61600;48.126;11.542;2023-09-12T02:39:37;95373.13;;;23.20;56.68
73383;BME280;61600;48.126;11.542;2023-09-12T02:42:02;95374.31;;;23.19;56.57
73383;BME280;61600;48.126;11.542;2023-09-12T02:44:28;95370.41;;;23.23;56.65
73383;BME280;61600;48.126;11.542;2023-09-12T02:46:54;95360.59;;;23.29;56.50
73383;BME280;61600;48.126;11.542;2023-09-12T02:49:20;95369.63;;;23.23;56.04
73383;BME280;61600;48.126;11.542;2023-09-12T02:51:45;95369.66;;;23.26;56.06
73383;BME280;61600;48.126;11.542;2023-09-12T02:54:11;95364.63;;;23.32;55.75
73383;BME280;61600;48.126;11.542;2023-09-12T02:56:37;95365.31;;;23.25;55.32
73383;BME280;61600;48.126;11.542;2023-09-12T02:59:03;95367.69;;;23.27;55.94
73383;BME280;61600;48.126;11.542;2023-09-12T03:01:29;95363.25;;;23.22;55.83
73383;BME280;61600;48.126;11.542;2023-09-12T03:03:55;95355.16;;;23.10;55.80
73383;BME280;61600;48.126;11.542;2023-09-12T03:06:21;95367.91;;;23.15;56.34
73383;BME280;61600;48.126;11.542;2023-09-12T03:08:47;95358.16;;;23.24;56.14
73383;BME280;61600;48.126;11.542;2023-09-12T03:11:13;95358.50;;;23.23;56.02
73383;BME280;61600;48.126;11.542;2023-09-12T03:13:40;95366.63;;;23.09;56.10
73383;BME280;61600;48.126;11.542;2023-09-12T03:16:11;95361.34;;;23.00;56.94
73383;BME280;61600;48.126;11.542;2023-09-12T03:18:37;95360.94;;;23.02;56.65
73383;BME280;61600;48.126;11.542;2023-09-12T03:21:02;95368.69;;;22.89;56.76
73383;BME280;61600;48.126;11.542;2023-09-12T03:23:28;95355.72;;;22.97;56.74
73383;BME280;61600;48.126;11.542;2023-09-12T03:25:54;95358.88;;;22.72;57.49
73383;BME280;61600;48.126;11.542;2023-09-12T03:28:20;95366.13;;;22.58;57.50
73383;BME280;61600;48.126;11.542;2023-09-12T03:30:46;95366.94;;;22.81;57.30
73383;BME280;61600;48.126;11.542;2023-09-12T03:33:12;95365.84;;;22.85;57.07
73383;BME280;61600;48.126;11.542;2023-09-12T03:35:37;95366.69;;;22.89;57.00
73383;BME280;61600;48.126;11.542;2023-09-12T03:38:03;95357.56;;;22.89;57.37
73383;BME280;61600;48.126;11.542;2023-09-12T03:40:29;95356.34;;;22.86;56.98
73383;BME280;61600;48.126;11.542;2023-09-12T03:42:56;95362.31;;;22.88;56.73
73383;BME280;61600;48.126;11.542;2023-09-12T03:45:22;95368.03;;;22.76;57.17
73383;BME280;61600;48.126;11.542;2023-09-12T03:47:48;95368.50;;;22.59;57.39
73383;BME280;61600;48.126;11.542;2023-09-12T03:50:14;95368.31;;;22.68;57.25
73383;BME280;61600;48.126;11.542;2023-09-12T03:52:40;95365.53;;;22.68;57.08
73383;BME280;61600;48.126;11.542;2023-09-12T03:55:06;95367.66;;;22.55;58.10
73383;BME280;61600;48.126;11.542;2023-09-12T03:57:32;95368.56;;;22.63;57.67
73383;BME280;61600;48.126;11.542;2023-09-12T03:59:57;95367.41;;;22.64;57.88
73383;BME280;61600;48.126;11.542;2023-09-12T04:02:23;95368.88;;;22.58;58.21
73383;BME280;61600;48.126;11.542;2023-09-12T04:04:49;95368.44;;;22.56;57.84
73383;BME280;61600;48.126;11.542;2023-09-12T04:07:15;95369.31;;;22.60;58.05
73383;BME280;61600;48.126;11.542;2023-09-12T04:09:40;95369.38;;;22.63;57.74
73383;BME280;61600;48.126;11.542;2023-09-12T04:12:06;95369.47;;;22.67;57.92
73383;BME280;61600;48.126;11.542;2023-09-12T04:14:35;95367.63;;;22.74;57.28
73383;BME280;61600;48.126;11.542;2023-09-12T04:17:00;95373.22;;;22.78;57.30
73383;BME280;61600;48.126;11.542;2023-09-12T04:19:26;95373.59;;;22.76;57.08
73383;BME280;61600;48.126;11.542;2023-09-12T04:21:52;95376.69;;;22.71;57.58
73383;BME280;61600;48.126;11.542;2023-09-12T04:24:17;95377.34;;;22.65;57.64
73383;BME280;61600;48.126;11.542;2023-09-12T04:26:43;95370.19;;;22.64;57.25
73383;BME280;61600;48.126;11.542;2023-09-12T04:29:10;95377.28;;;22.61;58.10
73383;BME280;61600;48.126;11.542;2023-09-12T04:31:35;95374.91;;;22.63;57.93
73383;BME280;61600;48.126;11.542;2023-09-12T04:34:03;95377.34;;;22.65;57.58
73383;BME280;61600;48.126;11.542;2023-09-12T04:36:29;95375.72;;;22.64;57.63
73383;BME280;61600;48.126;11.542;2023-09-12T04:38:54;95371.94;;;22.53;57.94
73383;BME280;61600;48.126;11.542;2023-09-12T04:41:20;95375.09;;;22.51;58.02
73383;BME280;61600;48.126;11.542;2023-09-12T04:43:46;95380.59;;;22.48;58.17
73383;BME280;61600;48.126;11.542;2023-09-12T04:46:12;95376.94;;;22.44;58.37
73383;BME280;61600;48.126;11.542;2023-09-12T04:48:38;95374.53;;;22.42;58.22
73383;BME280;61600;48.126;11.542;2023-09-12T04:51:04;95381.31;;;22.45;57.86
73383;BME280;61600;48.126;11.542;2023-09-12T04:53:30;95374.66;;;22.49;57.85
73383;BME280;61600;48.126;11.542;2023-09-12T04:56:03;95376.63;;;22.49;57.76
73383;BME280;61600;48.126;11.542;2023-09-12T04:58:30;95384.44;;;22.43;58.03
73383;BME280;61600;48.126;11.542;2023-09-12T05:00:55;95375.03;;;22.48;57.84
73383;BME280;61600;48.126;11.542;2023-09-12T05:03:22;95383.78;;;22.50;58.13
73383;BME280;61600;48.126;11.542;2023-09-12T05:05:49;95384.16;;;22.48;58.33
73383;BME280;61600;48.126;11.542;2023-09-12T05:08:16;95382.09;;;22.45;58.33
73383;BME280;61600;48.126;11.542;2023-09-12T05:10:44;95383.63;;;22.42;57.66
73383;BME280;61600;48.126;11.542;2023-09-12T05:13:09;95391.59;;;22.44;58.21
73383;BME280;61600;48.126;11.542;2023-09-12T05:15:36;95388.91;;;22.48;59.96
73383;BME280;61600;48.126;11.542;2023-09-12T05:18:02;95385.00;;;22.71;59.94
73383;BME280;61600;48.126;11.542;2023-09-12T05:20:28;95386.47;;;22.88;57.89
73383;BME280;61600;48.126;11.542;2023-09-12T05:22:54;95393.25;;;23.13;56.84
73383;BME280;61600;48.126;11.542;2023-09-12T05:25:19;95386.25;;;23.23;56.60
73383;BME280;61600;48.126;11.542;2023-09-12T05:27:45;95389.84;;;23.46;55.41
73383;BME280;61600;48.126;11.542;2023-09-12T05:30:11;95387.69;;;23.62;55.13
73383;BME280;61600;48.126;11.542;2023-09-12T05:32:37;95392.66;;;23.76;54.96
73383;BME280;61600;48.126;11.542;2023-09-12T05:35:04;95390.47;;;23.88;54.85
73383;BME280;61600;48.126;11.542;2023-09-12T05:37:29;95383.84;;;24.00;53.89
73383;BME280;61600;48.126;11.542;2023-09-12T05:39:55;95393.03;;;24.04;53.91
73383;BME280;61600;48.126;11.542;2023-09-12T05:42:21;95382.47;;;24.13;53.87
73383;BME280;61600;48.126;11.542;2023-09-12T05:44:48;95392.53;;;24.25;53.22
73383;BME280;61600;48.126;11.542;2023-09-12T05:47:15;95391.72;;;24.24;53.29
73383;BME280;61600;48.126;11.542;2023-09-12T05:49:41;95386.16;;;24.24;53.47
73383;BME280;61600;48.126;11.542;2023-09-12T05:52:08;95394.75;;;24.12;52.79
73383;BME280;61600;48.126;11.542;2023-09-12T05:54:34;95402.00;;;23.91;54.44
73383;BME280;61600;48.126;11.542;2023-09-12T05:57:00;95402.31;;;23.85;54.28
73383;BME280;61600;48.126;11.542;2023-09-12T05:59:26;95403.53;;;24.14;53.35
73383;BME280;61600;48.126;11.542;2023-09-12T06:01:51;95403.56;;;23.88;54.58
73383;BME280;61600;48.126;11.542;2023-09-12T06:04:17;95409.88;;;24.15;53.02
73383;BME280;61600;48.126;11.542;2023-09-12T06:06:45;95404.97;;;24.34;53.05
73383;BME280;61600;48.126;11.542;2023-09-12T06:09:11;95401.16;;;24.50;51.83
73383;BME280;61600;48.126;11.542;2023-09-12T06:11:37;95411.53;;;24.19;52.29
73383;BME280;61600;48.126;11.542;2023-09-12T06:14:03;95412.72;;;24.18;52.54
73383;BME280;61600;48.126;11.542;2023-09-12T06:16:29;95405.41;;;24.10;52.16
73383;BME280;61600;48.126;11.542;2023-09-12T06:18:55;95410.88;;;23.47;54.61
73383;BME280;61600;48.126;11.542;2023-09-12T06:21:21;95408.72;;;23.89;53.49
73383;BME280;61600;48.126;11.542;2023-09-12T06:23:48;95407.63;;;23.68;53.79
73383;BME280;61600;48.126;11.542;2023-09-12T06:26:14;95414.56;;;23.81;53.02
73383;BME280;61600;48.126;11.542;2023-09-12T06:28:40;95405.66;;;23.98;52.75
73383;BME280;61600;48.126;11.542;2023-09-12T06:31:08;95414.34;;;24.23;52.79
73383;BME280;61600;48.126;11.542;2023-09-12T06:33:35;95412.78;;;24.25;52.78
73383;BME280;61600;48.126;11.542;2023-09-12T06:36:00;95407.44;;;24.43;52.25
73383;BME280;61600;48.126;11.542;2023-09-12T06:38:26;95411.84;;;24.44;51.90
73383;BME280;61600;48.126;11.542;2023-09-12T06:40:52;95411.03;;;24.44;52.57
73383;BME280;61600;48.126;11.542;2023-09-12T06:43:18;95414.34;;;24.56;52.08
73383;BME280;61600;48.126;11.542;2023-09-12T06:45:45;95412.13;;;24.69;51.67
73383;BME280;61600;48.126;11.542;2023-09-12T06:48:10;95412.09;;;24.65;51.49
73383;BME280;61600;48.126;11.542;2023-09-12T06:50:36;95418.25;;;24.48;51.95
73383;BME280;61600;48.126;11.542;2023-09-12T06:53:04;95420.09;;;24.37;52.27
73383;BME280;61600;48.126;11.542;2023-09-12T06:55:32;95414.19;;;24.42;52.43
73383;BME280;61600;48.126;11.542;2023-09-12T06:57:58;95421.41;;;24.47;52.53
73383;BME280;61600;48.126;11.542;2023-09-12T07:00:24;95422.19;;;24.47;52.34
73383;BME280;61600;48.126;11.542;2023-09-12T07:02:52;95426.06;;;24.39;52.63
73383;BME280;61600;48.126;11.542;2023-09-12T07:05:17;95428.88;;;24.43;52.50
73383;BME280;61600;48.126;11.542;2023-09-12T07:07:43;95425.53;;;24.26;52.50
73383;BME280;61600;48.126;11.542;2023-09-12T07:10:09;95422.06;;;24.36;52.98
73383;BME280;61600;48.126;11.542;2023-09-12T07:12:35;95426.66;;;24.55;51.89
73383;BME280;61600;48.126;11.542;2023-09-12T07:15:01;95422.72;;;24.60;52.12
73383;BME280;61600;48.126;11.542;2023-09-12T07:17:29;95423.31;;;24.43;52.61
73383;BME280;61600;48.126;11.542;2023-09-12T07:19:55;95432.72;;;24.64;52.10
73383;BME280;61600;48.126;11.542;2023-09-12T07:22:21;95432.84;;;24.75;51.47
73383;BME280;61600;48.126;11.542;2023-09-12T07:24:47;95442.75;;;24.72;51.72
73383;BME280;61600;48.126;11.542;2023-09-12T07:27:13;95442.06;;;24.82;52.03
73383;BME280;61600;48.126;11.542;2023-09-12T07:29:38;95436.22;;;24.91;51.81
73383;BME280;61600;48.126;11.542;2023-09-12T07:32:04;95438.31;;;25.01;51.14
73383;BME280;61600;48.126;11.542;2023-09-12T07:34:30;95441.38;;;24.89;51.71
73383;BME280;61600;48.126;11.542;2023-09-12T07:36:56;95433.16;;;25.03;51.32
73383;BME280;61600;48.126;11.542;2023-09-12T07:39:22;95432.34;;;25.03;51.40
73383;BME280;61600;48.126;11.542;2023-09-12T07:41:47;95428.13;;;25.19;50.73
73383;BME280;61600;48.126;11.542;2023-09-12T07:44:13;95436.22;;;25.31;50.24
73383;BME280;61600;48.126;11.542;2023-09-12T07:46:41;95428.50;;;25.14;50.95
73383;BME280;61600;48.126;11.542;2023-09-12T07:49:07;95441.03;;;25.38;50.14
73383;BME280;61600;48.126;11.542;2023-09-12T07:51:35;95438.25;;;25.38;50.03
73383;BME280;61600;48.126;11.542;2023-09-12T07:54:01;95440.41;;;25.55;50.03
73383;BME280;61600;48.126;11.542;2023-09-12T07:56:27;95436.59;;;25.77;49.28
73383;BME280;61600;48.126;11.542;2023-09-12T07:58:53;95445.00;;;25.81;49.66
73383;BME280;61600;48.126;11.542;2023-09-12T08:01:21;95441.69;;;25.61;49.76
73383;BME280;61600;48.126;11.542;2023-09-12T08:03:46;95439.41;;;25.81;49.59
73383;BME280;61600;48.126;11.542;2023-09-12T08:06:12;95448.13;;;25.76;49.42
73383;BME280;61600;48.126;11.542;2023-09-12T08:08:38;95441.19;;;26.07;49.10
73383;BME280;61600;48.126;11.542;2023-09-12T08:11:04;95442.75;;;26.08;48.76
73383;BME280;61600;48.126;11.542;2023-09-12T08:13:30;95441.88;;;25.93;49.26
73383;BME280;61600;48.126;11.542;2023-09-12T08:15:56;95445.47;;;25.97;49.21
73383;BME280;61600;48.126;11.542;2023-09-12T08:18:28;95435.34;;;26.29;48.17
73383;BME280;61600;48.126;11.542;2023-09-12T08:20:54;95443.78;;;26.44;48.44
73383;BME280;61600;48.126;11.542;2023-09-12T08:23:20;95445.38;;;26.45;48.16
73383;BME280;61600;48.126;11.542;2023-09-12T08:25:46;95441.06;;;26.61;47.52
73383;BME280;61600;48.126;11.542;2023-09-12T08:28:12;95441.00;;;26.47;48.08
73383;BME280;61600;48.126;11.542;2023-09-12T08:30:38;95451.03;;;26.59;47.22
73383;BME280;61600;48.126;11.542;2023-09-12T08:33:04;95447.47;;;26.69;46.89
73383;BME280;61600;48.126;11.542;2023-09-12T08:35:30;95448.25;;;26.62;46.75
73383;BME280;61600;48.126;11.542;2023-09-12T08:37:56;95444.31;;;26.77;47.14
73383;BME280;61600;48.126;11.542;2023-09-12T08:40:22;95443.88;;;26.68;47.04
73383;BME280;61600;48.126;11.542;2023-09-12T08:42:51;95443.19;;;26.96;46.85
73383;BME280;61600;48.126;11.542;2023-09-12T08:45:18;95442.44;;;27.17;46.20
73383;BME280;61600;48.126;11.542;2023-09-12T08:47:46;95436.84;;;27.27;45.92
73383;BME280;61600;48.126;11.542;2023-09-12T08:50:15;95444.84;;;27.25;45.59
73383;BME280;61600;48.126;11.542;2023-09-12T08:52:43;95435.66;;;27.25;45.54
73383;BME280;61600;48.126;11.542;2023-09-12T08:55:09;95440.88;;;27.37;45.07
73383;BME280;61600;48.126;11.542;2023-09-12T08:57:38;95436.84;;;27.38;44.87
73383;BME280;61600;48.126;11.542;2023-09-12T09:00:05;95438.50;;;27.57;44.66
73383;BME280;61600;48.126;11.542;2023-09-12T09:02:33;95430.50;;;27.69;44.45
73383;BME280;61600;48.126;11.542;2023-09-12T09:05:04;95436.88;;;27.77;44.78
73383;BME280;61600;48.126;11.542;2023-09-12T09:07:35;95430.50;;;27.73;44.74
73383;BME280;61600;48.126;11.542;2023-09-12T09:10:03;95430.91;;;27.75;44.87
73383;BME280;61600;48.126;11.542;2023-09-12T09:12:32;95426.50;;;27.92;44.70
73383;BME280;61600;48.126;11.542;2023-09-12T09:14:58;95427.69;;;27.94;44.46
73383;BME280;61600;48.126;11.542;2023-09-12T09:17:24;95420.50;;;28.07;43.99
73383;BME280;61600;48.126;11.542;2023-09-12T09:19:50;95418.06;;;28.23;44.19
73383;BME280;61600;48.126;11.542;2023-09-12T09:22:15;95412.09;;;28.18;44.08
73383;BME280;61600;48.126;11.542;2023-09-12T09:24:41;95418.47;;;28.18;44.26
73383;BME280;61600;48.126;11.542;2023-09-12T09:27:07;95412.75;;;28.47;43.47
73383;BME280;61600;48.126;11.542;2023-09-12T09:29:48;95410.38;;;28.49;43.84
73383;BME280;61600;48.126;11.542;2023-09-12T09:32:18;95409.13;;;28.60;42.95
73383;BME280;61600;48.126;11.542;2023-09-12T09:34:44;95415.50;;;28.68;42.57
73383;BME280;61600;48.126;11.542;2023-09-12T09:37:10;95420.28;;;28.78;42.02
73383;BME280;61600;48.126;11.542;2023-09-12T09:39:36;95405.78;;;28.90;42.33
73383;BME280;61600;48.126;11.542;2023-09-12T09:42:02;95409.00;;;28.92;41.36
73383;BME280;61600;48.126;11.542;2023-09-12T09:44:28;95402.94;;;28.97;41.67
73383;BME280;61600;48.126;11.542;2023-09-12T09:47:00;95402.56;;;28.95;41.21
73383;BME280;61600;48.126;11.542;2023-09-12T09:49:31;95405.25;;;29.13;41.26
73383;BME280;61600;48.126;11.542;2023-09-12T09:51:57;95405.97;;;29.20;41.79
73383;BME280;61600;48.126;11.542;2023-09-12T09:54:26;95405.75;;;28.97;41.58
73383;BME280;61600;48.126;11.542;2023-09-12T09:56:56;95408.75;;;29.24;41.96
73383;BME280;61600;48.126;11.542;2023-09-12T09:59:23;95412.34;;;29.32;41.44
73383;BME280;61600;48.126;11.542;2023-09-12T10:01:50;95393.50;;;29.36;41.36
73383;BME280;61600;48.126;11.542;2023-09-12T10:04:18;95398.56;;;29.55;40.70
73383;BME280;61600;48.126;11.542;2023-09-12T10:06:45;95406.03;;;29.68;40.63
73383;BME280;61600;48.126;11.542;2023-09-12T10:09:12;95401.63;;;29.67;39.27
73383;BME280;61600;48.126;11.542;2023-09-12T10:11:40;95398.88;;;29.64;39.62
73383;BME280;61600;48.126;11.542;2023-09-12T10:14:07;95401.56;;;29.74;39.65
73383;BME280;61600;48.126;11.542;2023-09-12T10:16:44;95397.56;;;29.75;38.98
73383;BME280;61600;48.126;11.542;2023-09-12T10:19:16;95395.88;;;29.89;38.34
73383;BME280;61600;48.126;11.542;2023-09-12T10:21:49;95397.78;;;29.95;37.58
73383;BME280;61600;48.126;11.542;2023-09-12T10:24:15;95395.69;;;30.06;39.29
73383;BME280;61600;48.126;11.542;2023-09-12T10:26:44;95394.66;;;30.27;40.63
73383;BME280;61600;48.126;11.542;2023-09-12T10:29:14;95391.06;;;30.23;41.31
73383;BME280;61600;48.126;11.542;2023-09-12T10:31:41;95387.19;;;30.13;35.08
73383;BME280;61600;48.126;11.542;2023-09-12T10:34:08;95389.59;;;30.15;39.51
73383;BME280;61600;48.126;11.542;2023-09-12T10:36:40;95384.59;;;30.30;39.16
73383;BME280;61600;48.126;11.542;2023-09-12T10:39:08;95385.25;;;30.41;37.48
73383;BME280;61600;48.126;11.542;2023-09-12T10:41:39;95385.78;;;30.32;39.97
73383;BME280;61600;48.126;11.542;2023-09-12T10:44:15;95387.44;;;30.26;38.12
73383;BME280;61600;48.126;11.542;2023-09-12T10:46:43;95378.84;;;30.40;37.75
73383;BME280;61600;48.126;11.542;2023-09-12T10:49:11;95379.53;;;30.51;39.37
73383;BME280;61600;48.126;11.542;2023-09-12T10:51:40;95374.72;;;30.52;38.61
73383;BME280;61600;48.126;11.542;2023-09-12T10:54:07;95371.03;;;30.24;36.06
73383;BME280;61600;48.126;11.542;2023-09-12T10:56:34;95375.63;;;30.45;35.66
73383;BME280;61600;48.126;11.542;2023-09-12T11:01:39;95379.91;;;30.84;37.16
73383;BME280;61600;48.126;11.542;2023-09-12T11:06:44;95373.34;;;30.94;36.80
73383;BME280;61600;48.126;11.542;2023-09-12T11:09:18;95375.75;;;31.22;35.28
73383;BME280;61600;48.126;11.542;2023-09-12T11:11:49;95381.56;;;31.11;36.61
73383;BME280;61600;48.126;11.542;2023-09-12T11:14:17;95381.19;;;31.09;35.55
73383;BME280;61600;48.126;11.542;2023-09-12T11:16:43;95372.66;;;31.16;33.87
73383;BME280;61600;48.126;11.542;2023-09-12T11:21:45;95373.88;;;31.39;34.76
73383;BME280;61600;48.126;11.542;2023-09-12T11:24:12;95374.31;;;31.37;35.18
73383;BME280;61600;48.126;11.542;2023-09-12T11:27:04;95372.50;;;31.50;34.08
73383;BME280;61600;48.126;11.542;2023-09-12T11:29:38;95368.66;;;31.41;34.90
73383;BME280;61600;48.126;11.542;2023-09-12T11:32:05;95362.03;;;31.51;33.93
73383;BME280;61600;48.126;11.542;2023-09-12T11:34:41;95358.72;;;31.59;33.77
73383;BME280;61600;48.126;11.542;2023-09-12T11:37:08;95366.03;;;31.53;32.64
73383;BME280;61600;48.126;11.542;2023-09-12T11:39:35;95361.09;;;31.84;34.80
73383;BME280;61600;48.126;11.542;2023-09-12T11:42:03;95367.28;;;31.76;33.80
73383;BME280;61600;48.126;11.542;2023-09-12T11:44:30;95358.97;;;31.68;33.82
73383;BME280;61600;48.126;11.542;2023-09-12T11:47:01;95363.00;;;31.67;34.79
73383;BME280;61600;48.126;11.542;2023-09-12T11:49:39;95361.22;;;31.54;33.86
73383;BME280;61600;48.126;11.542;2023-09-12T11:52:13;95364.91;;;31.47;33.61
73383;BME280;61600;48.126;11.542;2023-09-12T11:54:40;95359.78;;;31.42;34.35
73383;BME280;61600;48.126;11.542;2023-09-12T11:57:09;95351.44;;;31.62;33.61
73383;BME280;61600;48.126;11.542;2023-09-12T11:59:43;95359.00;;;31.88;33.56
73383;BME280;61600;48.126;11.542;2023-09-12T12:02:17;95352.22;;;31.86;32.68
73383;BME280;61600;48.126;11.542;2023-09-12T12:04:44;95341.25;;;32.34;32.62
73383;BME280;61600;48.126;11.542;2023-09-12T12:07:10;95347.06;;;32.04;32.75
73383;BME280;61600;48.126;11.542;2023-09-12T12:09:36;95340.16;;;32.28;32.34
73383;BME280;61600;48.126;11.542;2023-09-12T12:12:11;95348.16;;;32.69;32.50
73383;BME280;61600;48.126;11.542;2023-09-12T12:14:39;95346.31;;;32.62;31.38
73383;BME280;61600;48.126;11.542;2023-09-12T12:17:12;95337.69;;;32.70;32.38
73383;BME280;61600;48.126;11.542;2023-09-12T12:19:38;95336.34;;;32.58;33.09
73383;BME280;61600;48.126;11.542;2023-09-12T12:22:05;95338.66;;;32.99;30.85
73383;BME280;61600;48.126;11.542;2023-09-12T12:24:39;95331.25;;;33.05;30.69
73383;BME280;61600;48.126;11.542;2023-09-12T12:27:05;95336.59;;;33.51;31.37
73383;BME280;61600;48.126;11.542;2023-09-12T12:29:31;95328.84;;;33.39;29.88
73383;BME280;61600;48.126;11.542;2023-09-12T12:32:02;95327.00;;;33.49;29.28
73383;BME280;61600;48.126;11.542;2023-09-12T12:34:29;95323.19;;;33.88;29.58
73383;BME280;61600;48.126;11.542;2023-09-12T12:36:55;95315.66;;;33.97;29.81
73383;BME280;61600;48.126;11.542;2023-09-12T12:39:21;95318.72;;;34.03;29.75
73383;BME280;61600;48.126;11.542;2023-09-12T12:41:47;95315.03;;;34.35;28.66
73383;BME280;61600;48.126;11.542;2023-09-12T12:44:13;95305.91;;;34.43;28.76
73383;BME280;61600;48.126;11.542;2023-09-12T12:46:54;95314.41;;;34.56;27.66
73383;BME280;61600;48.126;11.542;2023-09-12T12:49:21;95308.94;;;34.65;28.22
73383;BME280;61600;48.126;11.542;2023-09-12T12:51:48;95309.41;;;34.89;27.12
73383;BME280;61600;48.126;11.542;2023-09-12T12:54:15;95304.59;;;35.15;26.56
73383;BME280;61600;48.126;11.542;2023-09-12T12:56:42;95297.56;;;35.32;26.53
73383;BME280;61600;48.126;11.542;2023-09-12T12:59:08;95297.44;;;35.23;24.61
73383;BME280;61600;48.126;11.542;2023-09-12T13:01:37;95293.44;;;35.45;25.30